sensor_id;sensor_type;location;lat;lon;timestamp;P1;durP1;ratioP1;P2;durP2;ratioP2
25069;SDS011;13064;48.162;11.536;2023-05-29T00:00:21;14.23;;;8.35;;
25069;SDS011;13064;48.162;11.536;2023-05-29T00:02:50;13.82;;;7.60;;
25069;SDS011;13064;48.162;11.536;2023-05-29T00:05:18;12.95;;;7.85;;
25069;SDS011;13064;48.162;11.536;2023-05-29T00:07:46;12.35;;;7.68;;
25069;SDS011;13064;48.162;11.536;2023-05-29T00:10:15;14.15;;;8.20;;
25069;SDS011;13064;48.162;11.536;2023-05-29T00:12:43;14.77;;;7.47;;
25069;SDS011;13064;48.162;11.536;2023-05-29T00:15:11;12.52;;;7.78;;
25069;SDS011;13064;48.162;11.536;2023-05-29T00:17:39;15.40;;;8.75;;
25069;SDS011;13064;48.162;11.536;2023-05-29T00:20:07;17.08;;;8.68;;
25069;SDS011;13064;48.162;11.536;2023-05-29T00:22:41;13.80;;;7.75;;
25069;SDS011;13064;48.162;11.536;2023-05-29T00:25:09;13.90;;;8.10;;
25069;SDS011;13064;48.162;11.536;2023-05-29T00:27:36;14.73;;;7.70;;
25069;SDS011;13064;48.162;11.536;2023-05-29T00:30:04;14.27;;;8.13;;
25069;SDS011;13064;48.162;11.536;2023-05-29T00:32:32;14.05;;;8.10;;
25069;SDS011;13064;48.162;11.536;2023-05-29T00:35:00;14.18;;;7.70;;
25069;SDS011;13064;48.162;11.536;2023-05-29T00:37:27;17.63;;;7.65;;
25069;SDS011;13064;48.162;11.536;2023-05-29T00:39:55;13.77;;;7.78;;
25069;SDS011;13064;48.162;11.536;2023-05-29T00:42:23;14.57;;;7.82;;
25069;SDS011;13064;48.162;11.536;2023-05-29T00:44:51;14.65;;;8.15;;
25069;SDS011;13064;48.162;11.536;2023-05-29T00:47:18;12.05;;;7.40;;
25069;SDS011;13064;48.162;11.536;2023-05-29T00:49:47;13.35;;;7.80;;
25069;SDS011;13064;48.162;11.536;2023-05-29T00:52:15;11.52;;;7.32;;
25069;SDS011;13064;48.162;11.536;2023-05-29T00:54:43;13.65;;;7.88;;
25069;SDS011;13064;48.162;11.536;2023-05-29T00:57:12;12.75;;;7.60;;
25069;SDS011;13064;48.162;11.536;2023-05-29T00:59:39;14.32;;;7.68;;
25069;SDS011;13064;48.162;11.536;2023-05-29T01:02:08;14.57;;;8.20;;
25069;SDS011;13064;48.162;11.536;2023-05-29T01:04:36;14.30;;;8.05;;
25069;SDS011;13064;48.162;11.536;2023-05-29T01:07:04;11.93;;;7.38;;
25069;SDS011;13064;48.162;11.536;2023-05-29T01:09:33;13.18;;;7.88;;
25069;SDS011;13064;48.162;11.536;2023-05-29T01:12:06;14.27;;;8.13;;
25069;SDS011;13064;48.162;11.536;2023-05-29T01:17:11;15.25;;;8.50;;
25069;SDS011;13064;48.162;11.536;2023-05-29T01:19:45;12.05;;;7.10;;
25069;SDS011;13064;48.162;11.536;2023-05-29T01:22:24;15.18;;;7.57;;
25069;SDS011;13064;48.162;11.536;2023-05-29T01:24:58;15.43;;;7.97;;
25069;SDS011;13064;48.162;11.536;2023-05-29T01:27:31;14.30;;;8.13;;
25069;SDS011;13064;48.162;11.536;2023-05-29T01:29:59;15.50;;;7.88;;
25069;SDS011;13064;48.162;11.536;2023-05-29T01:32:29;16.88;;;7.97;;
25069;SDS011;13064;48.162;11.536;2023-05-29T01:34:57;13.55;;;8.00;;
25069;SDS011;13064;48.162;11.536;2023-05-29T01:37:25;12.00;;;7.13;;
25069;SDS011;13064;48.162;11.536;2023-05-29T01:39:55;16.02;;;8.05;;
25069;SDS011;13064;48.162;11.536;2023-05-29T01:42:24;17.17;;;8.85;;
25069;SDS011;13064;48.162;11.536;2023-05-29T01:44:53;11.50;;;7.32;;
25069;SDS011;13064;48.162;11.536;2023-05-29T01:47:22;12.75;;;7.72;;
25069;SDS011;13064;48.162;11.536;2023-05-29T01:49:51;14.10;;;7.70;;
25069;SDS011;13064;48.162;11.536;2023-05-29T01:52:19;11.68;;;7.47;;
25069;SDS011;13064;48.162;11.536;2023-05-29T01:54:47;13.40;;;8.10;;
25069;SDS011;13064;48.162;11.536;2023-05-29T01:57:15;14.05;;;8.13;;
25069;SDS011;13064;48.162;11.536;2023-05-29T01:59:43;14.20;;;7.55;;
25069;SDS011;13064;48.162;11.536;2023-05-29T02:02:11;13.43;;;8.00;;
25069;SDS011;13064;48.162;11.536;2023-05-29T02:04:38;11.25;;;7.10;;
25069;SDS011;13064;48.162;11.536;2023-05-29T02:07:06;13.93;;;7.90;;
25069;SDS011;13064;48.162;11.536;2023-05-29T02:09:34;13.45;;;8.07;;
25069;SDS011;13064;48.162;11.536;2023-05-29T02:12:02;14.48;;;8.00;;
25069;SDS011;13064;48.162;11.536;2023-05-29T02:14:30;12.45;;;7.88;;
25069;SDS011;13064;48.162;11.536;2023-05-29T02:16:59;13.45;;;8.02;;
25069;SDS011;13064;48.162;11.536;2023-05-29T02:19:28;15.90;;;8.88;;
25069;SDS011;13064;48.162;11.536;2023-05-29T02:21:56;12.20;;;7.78;;
25069;SDS011;13064;48.162;11.536;2023-05-29T02:24:23;13.18;;;7.65;;
25069;SDS011;13064;48.162;11.536;2023-05-29T02:26:51;12.63;;;7.78;;
25069;SDS011;13064;48.162;11.536;2023-05-29T02:29:19;16.15;;;8.45;;
25069;SDS011;13064;48.162;11.536;2023-05-29T02:31:47;11.82;;;7.68;;
25069;SDS011;13064;48.162;11.536;2023-05-29T02:34:15;13.63;;;8.38;;
25069;SDS011;13064;48.162;11.536;2023-05-29T02:36:43;13.45;;;7.60;;
25069;SDS011;13064;48.162;11.536;2023-05-29T02:39:10;16.50;;;8.55;;
25069;SDS011;13064;48.162;11.536;2023-05-29T02:41:39;14.52;;;9.07;;
25069;SDS011;13064;48.162;11.536;2023-05-29T02:44:06;14.10;;;8.27;;
25069;SDS011;13064;48.162;11.536;2023-05-29T02:46:34;13.60;;;8.52;;
25069;SDS011;13064;48.162;11.536;2023-05-29T02:49:02;14.63;;;8.45;;
25069;SDS011;13064;48.162;11.536;2023-05-29T02:51:29;16.00;;;8.60;;
25069;SDS011;13064;48.162;11.536;2023-05-29T02:53:58;16.45;;;8.48;;
25069;SDS011;13064;48.162;11.536;2023-05-29T02:56:26;15.13;;;8.20;;
25069;SDS011;13064;48.162;11.536;2023-05-29T02:58:54;17.23;;;8.43;;
25069;SDS011;13064;48.162;11.536;2023-05-29T03:01:22;14.55;;;8.43;;
25069;SDS011;13064;48.162;11.536;2023-05-29T03:03:49;13.35;;;7.72;;
25069;SDS011;13064;48.162;11.536;2023-05-29T03:06:17;17.05;;;8.48;;
25069;SDS011;13064;48.162;11.536;2023-05-29T03:08:45;14.43;;;8.85;;
25069;SDS011;13064;48.162;11.536;2023-05-29T03:11:13;15.82;;;8.43;;
25069;SDS011;13064;48.162;11.536;2023-05-29T03:13:41;13.68;;;8.60;;
25069;SDS011;13064;48.162;11.536;2023-05-29T03:16:10;16.35;;;8.27;;
25069;SDS011;13064;48.162;11.536;2023-05-29T03:18:39;14.65;;;9.02;;
25069;SDS011;13064;48.162;11.536;2023-05-29T03:21:07;14.85;;;8.63;;
25069;SDS011;13064;48.162;11.536;2023-05-29T03:23:35;15.65;;;8.70;;
25069;SDS011;13064;48.162;11.536;2023-05-29T03:26:03;14.90;;;8.55;;
25069;SDS011;13064;48.162;11.536;2023-05-29T03:28:33;15.55;;;9.15;;
25069;SDS011;13064;48.162;11.536;2023-05-29T03:31:04;15.68;;;8.90;;
25069;SDS011;13064;48.162;11.536;2023-05-29T03:33:32;16.70;;;9.35;;
25069;SDS011;13064;48.162;11.536;2023-05-29T03:36:07;18.80;;;8.88;;
25069;SDS011;13064;48.162;11.536;2023-05-29T03:38:35;17.45;;;8.77;;
25069;SDS011;13064;48.162;11.536;2023-05-29T03:41:02;17.35;;;8.80;;
25069;SDS011;13064;48.162;11.536;2023-05-29T03:43:30;13.82;;;8.30;;
25069;SDS011;13064;48.162;11.536;2023-05-29T03:45:58;17.63;;;8.40;;
25069;SDS011;13064;48.162;11.536;2023-05-29T03:48:28;13.65;;;8.15;;
25069;SDS011;13064;48.162;11.536;2023-05-29T03:50:56;13.57;;;7.85;;
25069;SDS011;13064;48.162;11.536;2023-05-29T03:53:30;15.25;;;8.57;;
25069;SDS011;13064;48.162;11.536;2023-05-29T03:55:58;12.25;;;7.80;;
25069;SDS011;13064;48.162;11.536;2023-05-29T03:58:26;14.18;;;8.15;;
25069;SDS011;13064;48.162;11.536;2023-05-29T04:00:54;11.90;;;7.97;;
25069;SDS011;13064;48.162;11.536;2023-05-29T04:03:21;13.80;;;8.40;;
25069;SDS011;13064;48.162;11.536;2023-05-29T04:05:49;14.25;;;8.00;;
25069;SDS011;13064;48.162;11.536;2023-05-29T04:08:18;14.75;;;7.57;;
25069;SDS011;13064;48.162;11.536;2023-05-29T04:10:45;14.20;;;7.45;;
25069;SDS011;13064;48.162;11.536;2023-05-29T04:13:13;12.60;;;7.72;;
25069;SDS011;13064;48.162;11.536;2023-05-29T04:15:41;12.38;;;7.60;;
25069;SDS011;13064;48.162;11.536;2023-05-29T04:18:08;17.13;;;8.48;;
25069;SDS011;13064;48.162;11.536;2023-05-29T04:20:37;12.07;;;7.00;;
25069;SDS011;13064;48.162;11.536;2023-05-29T04:23:04;13.68;;;7.07;;
25069;SDS011;13064;48.162;11.536;2023-05-29T04:25:32;14.60;;;7.60;;
25069;SDS011;13064;48.162;11.536;2023-05-29T04:28:01;13.30;;;7.35;;
25069;SDS011;13064;48.162;11.536;2023-05-29T04:30:29;15.43;;;7.78;;
25069;SDS011;13064;48.162;11.536;2023-05-29T04:32:59;12.45;;;6.97;;
25069;SDS011;13064;48.162;11.536;2023-05-29T04:35:27;11.30;;;6.55;;
25069;SDS011;13064;48.162;11.536;2023-05-29T04:37:58;12.32;;;6.32;;
25069;SDS011;13064;48.162;11.536;2023-05-29T04:40:30;10.43;;;6.60;;
25069;SDS011;13064;48.162;11.536;2023-05-29T04:42:58;16.27;;;7.75;;
25069;SDS011;13064;48.162;11.536;2023-05-29T04:45:41;12.77;;;6.90;;
25069;SDS011;13064;48.162;11.536;2023-05-29T04:48:09;13.55;;;6.78;;
25069;SDS011;13064;48.162;11.536;2023-05-29T04:50:36;12.15;;;6.78;;
25069;SDS011;13064;48.162;11.536;2023-05-29T04:53:05;11.88;;;6.55;;
25069;SDS011;13064;48.162;11.536;2023-05-29T04:55:33;11.75;;;6.82;;
25069;SDS011;13064;48.162;11.536;2023-05-29T04:58:01;11.93;;;6.30;;
25069;SDS011;13064;48.162;11.536;2023-05-29T05:00:29;9.52;;;5.93;;
25069;SDS011;13064;48.162;11.536;2023-05-29T05:02:57;14.50;;;6.88;;
25069;SDS011;13064;48.162;11.536;2023-05-29T05:05:25;12.00;;;6.80;;
25069;SDS011;13064;48.162;11.536;2023-05-29T05:07:57;12.48;;;6.47;;
25069;SDS011;13064;48.162;11.536;2023-05-29T05:10:24;9.93;;;6.40;;
25069;SDS011;13064;48.162;11.536;2023-05-29T05:12:54;10.23;;;6.35;;
25069;SDS011;13064;48.162;11.536;2023-05-29T05:15:22;10.93;;;6.70;;
25069;SDS011;13064;48.162;11.536;2023-05-29T05:17:49;14.57;;;7.07;;
25069;SDS011;13064;48.162;11.536;2023-05-29T05:20:17;13.68;;;6.25;;
25069;SDS011;13064;48.162;11.536;2023-05-29T05:22:52;11.13;;;6.20;;
25069;SDS011;13064;48.162;11.536;2023-05-29T05:25:20;10.07;;;6.00;;
25069;SDS011;13064;48.162;11.536;2023-05-29T05:27:47;14.23;;;6.60;;
25069;SDS011;13064;48.162;11.536;2023-05-29T05:30:16;9.73;;;5.97;;
25069;SDS011;13064;48.162;11.536;2023-05-29T05:32:43;10.65;;;6.00;;
25069;SDS011;13064;48.162;11.536;2023-05-29T05:35:11;11.38;;;6.20;;
25069;SDS011;13064;48.162;11.536;2023-05-29T05:37:39;10.27;;;6.03;;
25069;SDS011;13064;48.162;11.536;2023-05-29T05:40:08;11.00;;;5.80;;
25069;SDS011;13064;48.162;11.536;2023-05-29T05:42:44;16.33;;;6.85;;
25069;SDS011;13064;48.162;11.536;2023-05-29T05:45:12;10.98;;;6.55;;
25069;SDS011;13064;48.162;11.536;2023-05-29T05:47:40;12.07;;;6.53;;
25069;SDS011;13064;48.162;11.536;2023-05-29T05:50:08;11.35;;;6.80;;
25069;SDS011;13064;48.162;11.536;2023-05-29T05:52:36;12.32;;;6.63;;
25069;SDS011;13064;48.162;11.536;2023-05-29T05:55:04;13.30;;;6.57;;
25069;SDS011;13064;48.162;11.536;2023-05-29T05:57:32;11.10;;;6.10;;
25069;SDS011;13064;48.162;11.536;2023-05-29T06:00:00;10.98;;;5.75;;
25069;SDS011;13064;48.162;11.536;2023-05-29T06:02:41;18.83;;;6.70;;
25069;SDS011;13064;48.162;11.536;2023-05-29T06:05:18;12.13;;;5.90;;
25069;SDS011;13064;48.162;11.536;2023-05-29T06:07:46;13.65;;;6.22;;
25069;SDS011;13064;48.162;11.536;2023-05-29T06:10:13;13.82;;;6.70;;
25069;SDS011;13064;48.162;11.536;2023-05-29T06:12:41;10.40;;;5.97;;
25069;SDS011;13064;48.162;11.536;2023-05-29T06:15:18;11.60;;;6.53;;
25069;SDS011;13064;48.162;11.536;2023-05-29T06:17:46;12.10;;;6.90;;
25069;SDS011;13064;48.162;11.536;2023-05-29T06:20:15;9.93;;;6.10;;
25069;SDS011;13064;48.162;11.536;2023-05-29T06:22:43;10.50;;;5.90;;
25069;SDS011;13064;48.162;11.536;2023-05-29T06:25:17;10.10;;;6.05;;
25069;SDS011;13064;48.162;11.536;2023-05-29T06:27:45;10.65;;;5.88;;
25069;SDS011;13064;48.162;11.536;2023-05-29T06:30:13;9.50;;;6.07;;
25069;SDS011;13064;48.162;11.536;2023-05-29T06:32:42;12.73;;;5.53;;
25069;SDS011;13064;48.162;11.536;2023-05-29T06:35:09;10.52;;;6.50;;
25069;SDS011;13064;48.162;11.536;2023-05-29T06:37:38;9.52;;;5.72;;
25069;SDS011;13064;48.162;11.536;2023-05-29T06:40:06;9.77;;;5.72;;
25069;SDS011;13064;48.162;11.536;2023-05-29T06:42:33;11.75;;;5.53;;
25069;SDS011;13064;48.162;11.536;2023-05-29T06:45:07;11.10;;;5.57;;
25069;SDS011;13064;48.162;11.536;2023-05-29T06:47:35;9.55;;;5.40;;
25069;SDS011;13064;48.162;11.536;2023-05-29T06:50:03;7.35;;;4.85;;
25069;SDS011;13064;48.162;11.536;2023-05-29T06:52:30;11.32;;;5.20;;
25069;SDS011;13064;48.162;11.536;2023-05-29T06:55:16;9.10;;;5.10;;
25069;SDS011;13064;48.162;11.536;2023-05-29T06:57:44;9.00;;;5.38;;
25069;SDS011;13064;48.162;11.536;2023-05-29T07:00:12;11.15;;;5.65;;
25069;SDS011;13064;48.162;11.536;2023-05-29T07:02:47;8.55;;;4.75;;
25069;SDS011;13064;48.162;11.536;2023-05-29T07:05:15;8.82;;;4.90;;
25069;SDS011;13064;48.162;11.536;2023-05-29T07:07:42;10.18;;;5.38;;
25069;SDS011;13064;48.162;11.536;2023-05-29T07:10:11;9.48;;;5.55;;
25069;SDS011;13064;48.162;11.536;2023-05-29T07:12:39;8.80;;;5.40;;
25069;SDS011;13064;48.162;11.536;2023-05-29T07:15:07;11.55;;;5.65;;
25069;SDS011;13064;48.162;11.536;2023-05-29T07:17:36;9.10;;;5.90;;
25069;SDS011;13064;48.162;11.536;2023-05-29T07:20:14;11.10;;;5.57;;
25069;SDS011;13064;48.162;11.536;2023-05-29T07:22:43;10.57;;;5.20;;
25069;SDS011;13064;48.162;11.536;2023-05-29T07:25:11;11.65;;;5.47;;
25069;SDS011;13064;48.162;11.536;2023-05-29T07:27:39;9.77;;;5.28;;
25069;SDS011;13064;48.162;11.536;2023-05-29T07:30:07;10.75;;;5.63;;
25069;SDS011;13064;48.162;11.536;2023-05-29T07:32:36;8.80;;;5.32;;
25069;SDS011;13064;48.162;11.536;2023-05-29T07:35:04;10.80;;;5.65;;
25069;SDS011;13064;48.162;11.536;2023-05-29T07:37:33;13.43;;;6.20;;
25069;SDS011;13064;48.162;11.536;2023-05-29T07:40:02;11.88;;;6.20;;
25069;SDS011;13064;48.162;11.536;2023-05-29T07:43:10;8.50;;;5.88;;
25069;SDS011;13064;48.162;11.536;2023-05-29T07:45:48;10.70;;;5.80;;
25069;SDS011;13064;48.162;11.536;2023-05-29T07:48:16;9.07;;;5.68;;
25069;SDS011;13064;48.162;11.536;2023-05-29T07:50:46;8.75;;;5.68;;
25069;SDS011;13064;48.162;11.536;2023-05-29T07:53:15;10.45;;;5.95;;
25069;SDS011;13064;48.162;11.536;2023-05-29T07:55:43;11.55;;;5.72;;
25069;SDS011;13064;48.162;11.536;2023-05-29T07:58:11;9.15;;;5.53;;
25069;SDS011;13064;48.162;11.536;2023-05-29T08:00:40;11.40;;;5.82;;
25069;SDS011;13064;48.162;11.536;2023-05-29T08:03:08;9.32;;;5.30;;
25069;SDS011;13064;48.162;11.536;2023-05-29T08:06:01;10.38;;;5.57;;
25069;SDS011;13064;48.162;11.536;2023-05-29T08:08:29;8.90;;;5.63;;
25069;SDS011;13064;48.162;11.536;2023-05-29T08:10:58;10.13;;;5.78;;
25069;SDS011;13064;48.162;11.536;2023-05-29T08:13:27;7.93;;;5.63;;
25069;SDS011;13064;48.162;11.536;2023-05-29T08:15:55;8.85;;;5.05;;
25069;SDS011;13064;48.162;11.536;2023-05-29T08:18:26;10.18;;;4.95;;
25069;SDS011;13064;48.162;11.536;2023-05-29T08:20:53;13.60;;;5.28;;
25069;SDS011;13064;48.162;11.536;2023-05-29T08:23:22;7.97;;;5.20;;
25069;SDS011;13064;48.162;11.536;2023-05-29T08:25:49;7.30;;;4.90;;
25069;SDS011;13064;48.162;11.536;2023-05-29T08:28:17;11.43;;;5.35;;
25069;SDS011;13064;48.162;11.536;2023-05-29T08:30:45;7.72;;;5.30;;
25069;SDS011;13064;48.162;11.536;2023-05-29T08:33:13;8.25;;;5.38;;
25069;SDS011;13064;48.162;11.536;2023-05-29T08:35:40;9.95;;;5.97;;
25069;SDS011;13064;48.162;11.536;2023-05-29T08:38:08;10.43;;;6.18;;
25069;SDS011;13064;48.162;11.536;2023-05-29T08:40:36;8.15;;;5.35;;
25069;SDS011;13064;48.162;11.536;2023-05-29T08:43:10;10.50;;;5.57;;
25069;SDS011;13064;48.162;11.536;2023-05-29T08:45:40;10.40;;;5.85;;
25069;SDS011;13064;48.162;11.536;2023-05-29T08:48:09;10.30;;;5.55;;
25069;SDS011;13064;48.162;11.536;2023-05-29T08:50:44;9.23;;;5.40;;
25069;SDS011;13064;48.162;11.536;2023-05-29T08:53:15;8.75;;;5.13;;
25069;SDS011;13064;48.162;11.536;2023-05-29T08:55:43;7.57;;;5.00;;
25069;SDS011;13064;48.162;11.536;2023-05-29T08:58:13;9.52;;;5.80;;
25069;SDS011;13064;48.162;11.536;2023-05-29T09:00:41;9.77;;;4.90;;
25069;SDS011;13064;48.162;11.536;2023-05-29T09:03:09;7.97;;;5.03;;
25069;SDS011;13064;48.162;11.536;2023-05-29T09:05:38;8.98;;;4.70;;
25069;SDS011;13064;48.162;11.536;2023-05-29T09:08:10;10.77;;;5.13;;
25069;SDS011;13064;48.162;11.536;2023-05-29T09:10:41;10.52;;;5.53;;
25069;SDS011;13064;48.162;11.536;2023-05-29T09:13:10;9.48;;;4.85;;
25069;SDS011;13064;48.162;11.536;2023-05-29T09:15:40;10.98;;;5.28;;
25069;SDS011;13064;48.162;11.536;2023-05-29T09:18:10;9.27;;;5.13;;
25069;SDS011;13064;48.162;11.536;2023-05-29T09:20:38;10.35;;;4.88;;
25069;SDS011;13064;48.162;11.536;2023-05-29T09:23:07;10.65;;;5.35;;
25069;SDS011;13064;48.162;11.536;2023-05-29T09:25:39;9.30;;;4.53;;
25069;SDS011;13064;48.162;11.536;2023-05-29T09:28:08;7.90;;;4.95;;
25069;SDS011;13064;48.162;11.536;2023-05-29T09:30:39;7.85;;;4.53;;
25069;SDS011;13064;48.162;11.536;2023-05-29T09:35:42;8.00;;;4.40;;
25069;SDS011;13064;48.162;11.536;2023-05-29T09:38:10;8.57;;;4.20;;
25069;SDS011;13064;48.162;11.536;2023-05-29T09:40:54;8.20;;;4.65;;
25069;SDS011;13064;48.162;11.536;2023-05-29T09:43:27;6.97;;;4.28;;
25069;SDS011;13064;48.162;11.536;2023-05-29T09:45:54;9.40;;;4.55;;
25069;SDS011;13064;48.162;11.536;2023-05-29T09:48:23;9.52;;;4.40;;
25069;SDS011;13064;48.162;11.536;2023-05-29T09:50:50;7.78;;;4.20;;
25069;SDS011;13064;48.162;11.536;2023-05-29T09:53:21;6.30;;;3.63;;
25069;SDS011;13064;48.162;11.536;2023-05-29T09:55:51;9.77;;;4.10;;
25069;SDS011;13064;48.162;11.536;2023-05-29T09:58:20;8.90;;;4.63;;
25069;SDS011;13064;48.162;11.536;2023-05-29T10:00:48;7.65;;;4.22;;
25069;SDS011;13064;48.162;11.536;2023-05-29T10:03:16;9.73;;;3.72;;
25069;SDS011;13064;48.162;11.536;2023-05-29T10:05:46;6.32;;;4.03;;
25069;SDS011;13064;48.162;11.536;2023-05-29T10:08:15;6.97;;;3.92;;
25069;SDS011;13064;48.162;11.536;2023-05-29T10:10:45;9.23;;;4.15;;
25069;SDS011;13064;48.162;11.536;2023-05-29T10:13:14;8.80;;;4.78;;
25069;SDS011;13064;48.162;11.536;2023-05-29T10:15:44;6.32;;;3.70;;
25069;SDS011;13064;48.162;11.536;2023-05-29T10:18:31;6.88;;;3.45;;
25069;SDS011;13064;48.162;11.536;2023-05-29T10:20:59;7.30;;;4.10;;
25069;SDS011;13064;48.162;11.536;2023-05-29T10:23:28;6.72;;;4.00;;
25069;SDS011;13064;48.162;11.536;2023-05-29T10:25:59;8.45;;;3.65;;
25069;SDS011;13064;48.162;11.536;2023-05-29T10:28:30;10.98;;;4.45;;
25069;SDS011;13064;48.162;11.536;2023-05-29T10:31:03;8.18;;;4.05;;
25069;SDS011;13064;48.162;11.536;2023-05-29T10:33:38;6.72;;;3.60;;
25069;SDS011;13064;48.162;11.536;2023-05-29T10:36:12;8.07;;;4.22;;
25069;SDS011;13064;48.162;11.536;2023-05-29T10:38:40;5.63;;;3.50;;
25069;SDS011;13064;48.162;11.536;2023-05-29T10:43:54;10.27;;;3.85;;
25069;SDS011;13064;48.162;11.536;2023-05-29T10:47:08;10.77;;;3.80;;
25069;SDS011;13064;48.162;11.536;2023-05-29T10:49:18;5.93;;;4.07;;
25069;SDS011;13064;48.162;11.536;2023-05-29T10:51:46;6.70;;;3.67;;
25069;SDS011;13064;48.162;11.536;2023-05-29T10:54:14;5.72;;;3.80;;
25069;SDS011;13064;48.162;11.536;2023-05-29T10:56:51;8.67;;;3.83;;
25069;SDS011;13064;48.162;11.536;2023-05-29T10:59:19;5.70;;;3.97;;
25069;SDS011;13064;48.162;11.536;2023-05-29T11:01:47;7.88;;;4.47;;
25069;SDS011;13064;48.162;11.536;2023-05-29T11:06:48;6.07;;;3.70;;
25069;SDS011;13064;48.162;11.536;2023-05-29T11:09:35;5.78;;;3.95;;
25069;SDS011;13064;48.162;11.536;2023-05-29T11:20:04;4.57;;;3.72;;
25069;SDS011;13064;48.162;11.536;2023-05-29T11:22:46;5.47;;;3.60;;
25069;SDS011;13064;48.162;11.536;2023-05-29T11:25:20;5.65;;;3.70;;
25069;SDS011;13064;48.162;11.536;2023-05-29T11:27:48;4.63;;;3.75;;
25069;SDS011;13064;48.162;11.536;2023-05-29T11:30:19;7.50;;;4.05;;
25069;SDS011;13064;48.162;11.536;2023-05-29T11:32:47;6.78;;;3.47;;
25069;SDS011;13064;48.162;11.536;2023-05-29T11:35:15;4.78;;;3.50;;
25069;SDS011;13064;48.162;11.536;2023-05-29T11:37:45;5.25;;;3.67;;
25069;SDS011;13064;48.162;11.536;2023-05-29T11:40:14;4.05;;;3.17;;
25069;SDS011;13064;48.162;11.536;2023-05-29T11:42:42;7.47;;;4.20;;
25069;SDS011;13064;48.162;11.536;2023-05-29T11:47:54;5.10;;;3.85;;
25069;SDS011;13064;48.162;11.536;2023-05-29T11:50:29;4.78;;;3.38;;
25069;SDS011;13064;48.162;11.536;2023-05-29T11:52:58;5.95;;;3.80;;
25069;SDS011;13064;48.162;11.536;2023-05-29T11:55:26;6.20;;;3.75;;
25069;SDS011;13064;48.162;11.536;2023-05-29T11:57:58;6.25;;;3.63;;
25069;SDS011;13064;48.162;11.536;2023-05-29T12:00:28;6.53;;;3.70;;
25069;SDS011;13064;48.162;11.536;2023-05-29T12:02:57;4.85;;;3.58;;
25069;SDS011;13064;48.162;11.536;2023-05-29T12:05:30;5.97;;;3.50;;
25069;SDS011;13064;48.162;11.536;2023-05-29T12:07:58;4.95;;;3.30;;
25069;SDS011;13064;48.162;11.536;2023-05-29T12:10:31;6.00;;;3.67;;
25069;SDS011;13064;48.162;11.536;2023-05-29T12:12:59;4.28;;;3.40;;
25069;SDS011;13064;48.162;11.536;2023-05-29T12:15:27;6.15;;;3.45;;
25069;SDS011;13064;48.162;11.536;2023-05-29T12:17:55;5.18;;;3.53;;
25069;SDS011;13064;48.162;11.536;2023-05-29T12:20:24;5.50;;;3.67;;
25069;SDS011;13064;48.162;11.536;2023-05-29T12:23:00;4.43;;;3.45;;
25069;SDS011;13064;48.162;11.536;2023-05-29T12:25:28;7.38;;;3.45;;
25069;SDS011;13064;48.162;11.536;2023-05-29T12:27:56;6.28;;;3.42;;
25069;SDS011;13064;48.162;11.536;2023-05-29T12:30:24;7.75;;;4.00;;
25069;SDS011;13064;48.162;11.536;2023-05-29T12:32:55;6.15;;;4.00;;
25069;SDS011;13064;48.162;11.536;2023-05-29T12:35:23;6.43;;;3.90;;
25069;SDS011;13064;48.162;11.536;2023-05-29T12:40:24;5.28;;;4.20;;
25069;SDS011;13064;48.162;11.536;2023-05-29T12:42:59;7.43;;;3.80;;
25069;SDS011;13064;48.162;11.536;2023-05-29T12:45:28;8.77;;;4.18;;
25069;SDS011;13064;48.162;11.536;2023-05-29T12:47:57;5.28;;;3.83;;
25069;SDS011;13064;48.162;11.536;2023-05-29T12:50:29;5.93;;;4.10;;
25069;SDS011;13064;48.162;11.536;2023-05-29T12:53:09;9.18;;;4.05;;
25069;SDS011;13064;48.162;11.536;2023-05-29T12:55:38;7.17;;;4.20;;
25069;SDS011;13064;48.162;11.536;2023-05-29T12:58:10;6.90;;;4.07;;
25069;SDS011;13064;48.162;11.536;2023-05-29T13:00:38;7.90;;;4.22;;
25069;SDS011;13064;48.162;11.536;2023-05-29T13:03:07;5.47;;;3.75;;
25069;SDS011;13064;48.162;11.536;2023-05-29T13:05:36;6.18;;;3.90;;
25069;SDS011;13064;48.162;11.536;2023-05-29T13:08:03;6.93;;;3.55;;
25069;SDS011;13064;48.162;11.536;2023-05-29T13:10:33;8.18;;;4.40;;
25069;SDS011;13064;48.162;11.536;2023-05-29T13:13:01;7.55;;;4.47;;
25069;SDS011;13064;48.162;11.536;2023-05-29T13:15:29;7.03;;;4.18;;
25069;SDS011;13064;48.162;11.536;2023-05-29T13:17:59;7.30;;;3.83;;
25069;SDS011;13064;48.162;11.536;2023-05-29T13:20:27;7.25;;;4.00;;
25069;SDS011;13064;48.162;11.536;2023-05-29T13:22:55;6.72;;;3.85;;
25069;SDS011;13064;48.162;11.536;2023-05-29T13:25:22;4.82;;;3.85;;
25069;SDS011;13064;48.162;11.536;2023-05-29T13:27:52;8.35;;;3.47;;
25069;SDS011;13064;48.162;11.536;2023-05-29T13:30:20;4.72;;;3.70;;
25069;SDS011;13064;48.162;11.536;2023-05-29T13:32:49;6.55;;;4.00;;
25069;SDS011;13064;48.162;11.536;2023-05-29T13:35:18;7.40;;;3.95;;
25069;SDS011;13064;48.162;11.536;2023-05-29T13:37:46;7.32;;;3.92;;
25069;SDS011;13064;48.162;11.536;2023-05-29T13:40:14;6.05;;;3.78;;
25069;SDS011;13064;48.162;11.536;2023-05-29T13:42:41;6.47;;;4.00;;
25069;SDS011;13064;48.162;11.536;2023-05-29T13:45:09;8.23;;;3.50;;
25069;SDS011;13064;48.162;11.536;2023-05-29T13:47:38;6.00;;;3.63;;
25069;SDS011;13064;48.162;11.536;2023-05-29T13:50:06;5.57;;;3.60;;
25069;SDS011;13064;48.162;11.536;2023-05-29T13:52:34;4.93;;;3.75;;
25069;SDS011;13064;48.162;11.536;2023-05-29T13:55:02;8.75;;;3.63;;
25069;SDS011;13064;48.162;11.536;2023-05-29T13:57:35;6.97;;;3.25;;
25069;SDS011;13064;48.162;11.536;2023-05-29T14:02:34;5.15;;;3.53;;
25069;SDS011;13064;48.162;11.536;2023-05-29T14:05:02;5.70;;;3.63;;
25069;SDS011;13064;48.162;11.536;2023-05-29T14:07:29;7.38;;;4.10;;
25069;SDS011;13064;48.162;11.536;2023-05-29T14:09:57;5.90;;;3.50;;
25069;SDS011;13064;48.162;11.536;2023-05-29T14:12:25;5.57;;;3.80;;
25069;SDS011;13064;48.162;11.536;2023-05-29T14:14:52;7.25;;;3.83;;
25069;SDS011;13064;48.162;11.536;2023-05-29T14:17:20;5.53;;;3.83;;
25069;SDS011;13064;48.162;11.536;2023-05-29T14:19:49;6.28;;;3.53;;
25069;SDS011;13064;48.162;11.536;2023-05-29T14:22:16;7.10;;;3.72;;
25069;SDS011;13064;48.162;11.536;2023-05-29T14:24:44;6.50;;;4.18;;
25069;SDS011;13064;48.162;11.536;2023-05-29T14:27:12;6.10;;;3.47;;
25069;SDS011;13064;48.162;11.536;2023-05-29T14:29:39;6.10;;;3.53;;
25069;SDS011;13064;48.162;11.536;2023-05-29T14:32:07;6.30;;;3.80;;
25069;SDS011;13064;48.162;11.536;2023-05-29T14:34:35;5.20;;;3.33;;
25069;SDS011;13064;48.162;11.536;2023-05-29T14:37:03;3.75;;;3.25;;
25069;SDS011;13064;48.162;11.536;2023-05-29T14:39:30;4.90;;;3.42;;
25069;SDS011;13064;48.162;11.536;2023-05-29T14:41:58;7.85;;;3.72;;
25069;SDS011;13064;48.162;11.536;2023-05-29T14:44:25;6.28;;;4.10;;
25069;SDS011;13064;48.162;11.536;2023-05-29T14:46:53;7.72;;;3.92;;
25069;SDS011;13064;48.162;11.536;2023-05-29T14:49:21;8.45;;;4.07;;
25069;SDS011;13064;48.162;11.536;2023-05-29T14:51:50;6.20;;;3.60;;
25069;SDS011;13064;48.162;11.536;2023-05-29T14:54:17;6.20;;;3.58;;
25069;SDS011;13064;48.162;11.536;2023-05-29T14:56:45;8.63;;;3.65;;
25069;SDS011;13064;48.162;11.536;2023-05-29T14:59:13;6.03;;;3.60;;
25069;SDS011;13064;48.162;11.536;2023-05-29T15:01:40;8.00;;;3.65;;
25069;SDS011;13064;48.162;11.536;2023-05-29T15:04:08;6.35;;;3.63;;
25069;SDS011;13064;48.162;11.536;2023-05-29T15:06:35;5.20;;;3.63;;